Time;durP1;ratioP1;P1;durP2;ratioP2;P2;SDS_P1;SDS_P2;PMS_P1;PMS_P2;Temp;Humidity;BMP_temperature;BMP_pressure;BME280_temperature;BME280_humidity;BME280_pressure;Samples;Min_cycle;Max_cycle;Signal;HPM_P1;HPM_P2
2022/12/23 00:02:08;;;;;;;121.97;43.22;;;7.70;99.90;;;;;;4952105;28;20510;-73
2022/12/23 00:04:54;;;;;;;112.70;42.50;;;7.60;99.90;;;;;;4954900;28;20046;-72
2022/12/23 00:07:39;;;;;;;118.90;42.13;;;7.70;99.90;;;;;;4954844;28;20043;-73
2022/12/23 00:10:25;;;;;;;116.38;41.05;;;7.70;99.90;;;;;;4959991;28;20169;-73
2022/12/23 00:16:16;;;;;;;119.05;41.05;;;7.70;99.90;;;;;;4954122;28;20055;-73
2022/12/23 00:19:03;;;;;;;179.43;43.58;;;7.70;99.90;;;;;;4953442;28;20118;-73
2022/12/23 00:21:49;;;;;;;221.15;45.63;;;7.70;99.90;;;;;;4954108;28;20186;-73
2022/12/23 00:24:35;;;;;;;663.72;55.85;;;7.70;99.90;;;;;;4953220;28;20043;-73
2022/12/23 00:27:20;;;;;;;458.63;47.50;;;7.70;99.90;;;;;;4953138;28;20070;-73
2022/12/23 00:30:09;;;;;;;178.40;41.58;;;7.70;99.90;;;;;;4952903;28;20046;-73
2022/12/23 00:32:55;;;;;;;155.70;43.45;;;7.70;99.90;;;;;;4957488;28;20051;-72
2022/12/23 00:35:42;;;;;;;264.50;47.15;;;7.70;99.90;;;;;;4952939;28;20102;-73
2022/12/23 00:44:37;;;;;;;207.32;47.30;;;7.70;99.90;;;;;;4952535;28;20110;-73
2022/12/23 00:50:28;;;;;;;158.55;43.08;;;7.60;99.90;;;;;;4952888;28;20050;-73
2022/12/23 00:53:14;;;;;;;488.77;52.65;;;7.70;99.90;;;;;;4951749;28;20405;-74
2022/12/23 00:56:00;;;;;;;90.63;37.85;;;7.70;99.90;;;;;;4940179;28;20047;-74
2022/12/23 00:58:46;;;;;;;158.52;41.33;;;7.70;99.90;;;;;;4952951;28;20042;-75
2022/12/23 01:07:41;;;;;;;136.73;39.45;;;7.80;99.90;;;;;;4951446;28;20039;-74
2022/12/23 01:10:27;;;;;;;214.32;39.95;;;7.70;99.90;;;;;;4952374;28;20081;-75
2022/12/23 01:13:13;;;;;;;166.43;40.35;;;7.70;99.90;;;;;;4952755;28;20110;-75
2022/12/23 01:16:05;;;;;;;250.70;41.97;;;7.80;99.90;;;;;;4941303;28;20042;-75
2022/12/23 01:18:51;;;;;;;114.93;35.73;;;7.70;99.90;;;;;;4955732;28;20055;-75
2022/12/23 01:21:37;;;;;;;143.00;37.20;;;7.80;99.90;;;;;;4957131;28;20043;-75
2022/12/23 01:24:27;;;;;;;265.83;42.10;;;7.70;99.90;;;;;;4957539;28;20043;-74
2022/12/23 01:27:12;;;;;;;320.67;42.83;;;7.80;99.90;;;;;;4971652;28;20894;-73
2022/12/23 01:29:58;;;;;;;112.05;33.40;;;7.80;99.90;;;;;;4943740;28;20044;-74
2022/12/23 01:32:44;;;;;;;255.02;36.70;;;7.80;99.90;;;;;;4957344;28;20050;-73
2022/12/23 01:35:30;;;;;;;145.05;35.40;;;7.80;99.90;;;;;;4954624;28;20054;-74
2022/12/23 01:38:16;;;;;;;125.05;32.90;;;7.80;99.90;;;;;;4954341;28;20059;-74
2022/12/23 01:41:02;;;;;;;265.20;40.05;;;7.80;99.90;;;;;;4955049;28;20062;-74
2022/12/23 01:43:50;;;;;;;287.30;41.70;;;7.90;99.90;;;;;;4959927;28;20047;-74
2022/12/23 01:46:36;;;;;;;128.02;35.33;;;7.90;99.90;;;;;;4958074;28;20130;-74
2022/12/23 01:49:22;;;;;;;254.88;37.92;;;7.90;99.90;;;;;;4955544;28;20054;-74
2022/12/23 01:52:10;;;;;;;384.60;43.25;;;7.90;99.90;;;;;;4955127;28;20133;-74
2022/12/23 01:54:56;;;;;;;338.63;40.47;;;7.90;99.90;;;;;;4955343;28;20065;-74
2022/12/23 01:57:43;;;;;;;272.02;38.97;;;7.90;99.90;;;;;;4953110;28;20057;-73
2022/12/23 02:03:43;;;;;;;110.43;31.17;;;7.90;99.90;;;;;;4954671;28;20513;-74
2022/12/23 02:09:43;;;;;;;122.05;29.13;;;7.90;99.90;;;;;;4958000;28;20039;-74
2022/12/23 02:12:41;;;;;;;139.60;33.25;;;7.90;99.90;;;;;;4947507;28;20047;-74
2022/12/23 02:18:48;;;;;;;157.05;38.05;;;8.00;99.90;;;;;;4954391;28;20094;-74
2022/12/23 02:21:34;;;;;;;179.65;39.05;;;7.90;99.90;;;;;;4956433;28;20098;-74
2022/12/23 02:24:42;;;;;;;181.32;39.35;;;7.90;99.90;;;;;;4954014;28;20053;-73
2022/12/23 02:27:31;;;;;;;172.23;40.85;;;7.90;99.90;;;;;;4970496;28;20178;-74
2022/12/23 02:30:39;;;;;;;131.07;39.38;;;7.90;99.90;;;;;;4956051;28;20085;-74
2022/12/23 02:33:41;;;;;;;108.88;36.47;;;7.90;99.90;;;;;;4956274;28;20054;-73
2022/12/23 02:36:37;;;;;;;186.38;41.78;;;7.90;99.90;;;;;;4959611;28;20042;-73
2022/12/23 02:39:35;;;;;;;119.63;37.33;;;7.90;99.90;;;;;;4964808;28;20165;-73
2022/12/23 02:42:35;;;;;;;175.30;39.85;;;7.90;99.90;;;;;;4955168;28;20398;-74
2022/12/23 02:45:57;;;;;;;146.95;41.08;;;7.90;99.90;;;;;;4955295;28;20133;-74
2022/12/23 02:49:09;;;;;;;175.38;42.55;;;7.90;99.90;;;;;;4955505;28;20046;-73
2022/12/23 02:51:59;;;;;;;143.43;41.60;;;7.90;99.90;;;;;;4942720;28;20066;-74
2022/12/23 02:54:56;;;;;;;149.27;40.40;;;7.90;99.90;;;;;;4955784;28;20546;-73
2022/12/23 02:57:47;;;;;;;120.30;38.67;;;7.80;99.90;;;;;;4941705;28;20050;-74
2022/12/23 03:00:34;;;;;;;122.53;37.90;;;7.80;99.90;;;;;;4952083;28;20051;-74
2022/12/23 03:03:21;;;;;;;139.30;39.75;;;7.80;99.90;;;;;;4951652;28;20047;-74
2022/12/23 03:06:20;;;;;;;125.40;36.55;;;7.80;99.90;;;;;;4942802;28;20074;-74
2022/12/23 03:09:07;;;;;;;119.40;36.90;;;7.80;99.90;;;;;;4953690;28;20050;-74
2022/12/23 03:12:24;;;;;;;159.13;40.00;;;7.80;99.90;;;;;;4956939;28;20424;-73
2022/12/23 03:15:16;;;;;;;114.85;36.05;;;7.80;99.90;;;;;;4954881;28;20046;-73
2022/12/23 03:18:25;;;;;;;222.57;41.25;;;7.70;99.90;;;;;;4956386;28;20074;-73
2022/12/23 03:21:23;;;;;;;155.93;38.65;;;7.70;99.90;;;;;;4953547;28;20134;-73
2022/12/23 03:24:39;;;;;;;183.88;40.88;;;7.70;99.90;;;;;;4971000;28;20105;-73
2022/12/23 03:27:41;;;;;;;138.77;39.28;;;7.70;99.90;;;;;;4954595;28;20129;-73
2022/12/23 03:30:29;;;;;;;151.63;40.10;;;7.70;99.90;;;;;;4952682;28;20043;-73
2022/12/23 03:33:28;;;;;;;126.53;38.17;;;7.70;99.90;;;;;;4955185;28;20060;-73
2022/12/23 03:36:21;;;;;;;158.43;39.03;;;7.60;99.90;;;;;;4953606;28;20081;-73
2022/12/23 03:39:12;;;;;;;169.07;40.50;;;7.60;99.90;;;;;;4952439;28;20047;-73
2022/12/23 03:42:04;;;;;;;173.23;40.45;;;7.70;99.90;;;;;;4951366;28;20058;-73
2022/12/23 03:44:52;;;;;;;134.10;38.75;;;7.60;99.90;;;;;;4952209;28;20038;-72
2022/12/23 03:48:12;;;;;;;134.85;37.65;;;7.60;99.90;;;;;;4954084;28;20055;-73
2022/12/23 03:51:03;;;;;;;170.82;39.13;;;7.60;99.90;;;;;;4953283;28;20212;-73
2022/12/23 03:53:56;;;;;;;157.27;37.50;;;7.60;99.90;;;;;;4953402;28;20133;-73
2022/12/23 03:56:45;;;;;;;;;;;7.70;99.90;;;;;;4955475;28;20088;-73
2022/12/23 03:59:33;;;;;;;149.85;35.97;;;7.60;99.90;;;;;;4941156;28;19918;-72
2022/12/23 04:02:44;;;;;;;186.23;36.60;;;7.60;99.90;;;;;;4967232;28;20134;-73
2022/12/23 04:05:39;;;;;;;187.32;37.15;;;7.70;99.90;;;;;;4951219;28;20505;-72
2022/12/23 04:08:35;;;;;;;184.40;37.65;;;7.70;99.90;;;;;;4954897;28;20046;-72
2022/12/23 04:11:21;;;;;;;167.25;37.03;;;7.70;99.90;;;;;;4953379;28;20047;-73
2022/12/23 04:14:07;;;;;;;206.07;38.10;;;7.70;99.90;;;;;;4954011;28;20110;-72
2022/12/23 04:16:57;;;;;;;185.73;36.90;;;7.70;99.90;;;;;;4953692;28;20207;-73
2022/12/23 04:19:44;;;;;;;210.00;38.35;;;7.70;99.90;;;;;;4953928;28;20147;-72
2022/12/23 04:22:30;;;;;;;288.10;40.47;;;7.70;99.90;;;;;;4970157;28;20039;-72
2022/12/23 04:25:16;;;;;;;174.00;37.88;;;7.70;99.90;;;;;;4969454;28;20130;-72
2022/12/23 04:28:02;;;;;;;144.82;35.72;;;7.70;99.90;;;;;;4939267;28;20049;-73
2022/12/23 04:30:48;;;;;;;206.77;37.72;;;7.70;99.90;;;;;;4954483;28;20093;-73
2022/12/23 04:33:34;;;;;;;359.33;43.75;;;7.70;99.90;;;;;;4953716;28;20126;-73
2022/12/23 04:36:20;;;;;;;193.77;36.38;;;7.70;99.90;;;;;;4954931;28;20414;-72
2022/12/23 04:39:06;;;;;;;177.23;35.13;;;7.70;99.90;;;;;;4942412;28;20561;-72
2022/12/23 04:41:52;;;;;;;318.75;39.72;;;7.70;99.90;;;;;;4939794;28;20512;-73
2022/12/23 04:44:38;;;;;;;343.65;40.28;;;7.70;99.90;;;;;;4950546;28;20061;-72
2022/12/23 04:47:24;;;;;;;294.33;39.17;;;7.70;99.90;;;;;;4969356;28;20047;-72
2022/12/23 04:50:14;;;;;;;168.70;33.75;;;7.60;99.90;;;;;;4953356;28;20038;-73
2022/12/23 04:52:59;;;;;;;306.27;38.20;;;7.60;99.90;;;;;;4951970;28;20038;-72
2022/12/23 04:55:52;;;;;;;317.70;39.55;;;7.60;99.90;;;;;;4959789;28;20453;-73
2022/12/23 04:58:38;;;;;;;215.40;35.40;;;7.60;99.90;;;;;;4958047;28;20047;-73
2022/12/23 05:01:23;;;;;;;392.67;37.58;;;7.60;99.90;;;;;;4973347;28;20134;-73
2022/12/23 05:04:10;;;;;;;244.23;35.35;;;7.50;99.90;;;;;;4956325;28;20046;-73
2022/12/23 05:06:56;;;;;;;198.45;33.05;;;7.50;99.90;;;;;;4969644;28;20389;-73
2022/12/23 05:09:42;;;;;;;256.05;34.58;;;7.50;99.90;;;;;;4958922;28;20038;-73
2022/12/23 05:12:29;;;;;;;445.58;38.00;;;7.40;99.90;;;;;;4956391;28;20050;-73
2022/12/23 05:15:15;;;;;;;319.85;34.17;;;7.50;99.90;;;;;;4971459;28;20104;-73
2022/12/23 05:18:01;;;;;;;287.95;35.85;;;7.40;99.90;;;;;;4958329;28;20409;-73
2022/12/23 05:20:48;;;;;;;141.43;30.55;;;7.40;99.90;;;;;;4957246;28;20090;-73
2022/12/23 05:23:34;;;;;;;379.85;36.08;;;7.40;99.90;;;;;;4958098;28;20043;-73
2022/12/23 05:26:20;;;;;;;184.73;29.83;;;7.30;99.90;;;;;;4957048;28;20114;-73
2022/12/23 05:29:06;;;;;;;158.93;29.13;;;7.40;99.90;;;;;;4942961;28;20125;-73
2022/12/23 05:31:51;;;;;;;120.18;27.85;;;7.30;99.90;;;;;;4955982;28;20162;-73
2022/12/23 05:34:37;;;;;;;284.15;31.95;;;7.30;99.90;;;;;;4956983;28;20057;-73
2022/12/23 05:37:23;;;;;;;420.25;32.70;;;7.30;99.90;;;;;;4956578;28;20050;-73
2022/12/23 05:40:09;;;;;;;193.70;27.58;;;7.30;99.90;;;;;;4959742;28;20039;-73
2022/12/23 05:42:55;;;;;;;325.85;32.75;;;7.30;99.90;;;;;;4955065;28;20051;-73
2022/12/23 05:45:42;;;;;;;122.55;27.60;;;7.30;99.90;;;;;;4955398;28;20049;-73
2022/12/23 05:48:27;;;;;;;124.90;28.67;;;7.30;99.90;;;;;;4966797;28;20043;-73
2022/12/23 05:51:13;;;;;;;146.23;27.67;;;7.30;99.90;;;;;;4958070;28;20053;-73
2022/12/23 05:53:59;;;;;;;296.88;30.42;;;7.30;99.90;;;;;;4954610;28;20062;-73
2022/12/23 05:56:45;;;;;;;195.75;30.02;;;7.30;99.90;;;;;;4956276;28;20049;-73
2022/12/23 05:59:31;;;;;;;289.40;30.05;;;7.30;99.90;;;;;;4957667;28;20150;-73
2022/12/23 06:02:17;;;;;;;403.85;33.10;;;7.40;99.90;;;;;;4951307;28;20043;-73
2022/12/23 06:05:03;;;;;;;398.27;33.70;;;7.30;99.90;;;;;;4965358;28;20050;-74
2022/12/23 06:07:49;;;;;;;273.95;29.45;;;7.40;99.90;;;;;;4945604;28;20049;-73
2022/12/23 06:10:35;;;;;;;228.63;28.77;;;7.40;99.90;;;;;;4959832;28;20081;-74
2022/12/23 06:13:21;;;;;;;619.47;36.10;;;7.40;99.90;;;;;;4953851;28;20046;-73
2022/12/23 06:16:07;;;;;;;441.67;30.83;;;7.40;99.90;;;;;;4939412;28;20050;-73
2022/12/23 06:18:57;;;;;;;614.13;37.22;;;7.40;99.90;;;;;;4941181;28;20057;-74
2022/12/23 06:21:43;;;;;;;263.17;27.67;;;7.40;99.90;;;;;;4956432;28;20053;-73
2022/12/23 06:24:28;;;;;;;375.48;29.40;;;7.40;99.90;;;;;;4943753;28;20050;-73
2022/12/23 06:27:15;;;;;;;478.30;31.25;;;7.30;99.90;;;;;;4968909;28;20120;-73
2022/12/23 06:30:01;;;;;;;653.35;35.33;;;7.30;99.90;;;;;;4961319;28;20498;-74
2022/12/23 06:32:47;;;;;;;702.72;37.13;;;7.30;99.90;;;;;;4949090;28;20062;-73
2022/12/23 06:35:32;;;;;;;539.38;34.85;;;7.30;99.90;;;;;;4948910;28;20557;-73
2022/12/23 06:38:18;;;;;;;289.77;27.40;;;7.30;99.90;;;;;;4950903;28;20061;-74
2022/12/23 06:41:04;;;;;;;586.78;34.75;;;7.30;99.90;;;;;;4963685;28;20043;-74
2022/12/23 06:43:50;;;;;;;696.17;36.95;;;7.30;99.90;;;;;;4950996;28;20498;-74
2022/12/23 06:46:36;;;;;;;669.05;36.35;;;7.40;99.90;;;;;;4954652;28;20111;-74
2022/12/23 06:49:22;;;;;;;446.83;29.02;;;7.30;99.90;;;;;;4950426;28;20051;-74
2022/12/23 06:52:09;;;;;;;698.05;36.65;;;7.30;99.90;;;;;;4959020;28;20623;-74
2022/12/23 06:54:55;;;;;;;654.70;36.00;;;7.30;99.90;;;;;;4953032;28;20137;-74
2022/12/23 06:57:40;;;;;;;424.98;32.85;;;7.30;99.90;;;;;;4953552;28;20121;-74
2022/12/23 07:00:26;;;;;;;557.42;35.35;;;7.30;99.90;;;;;;4948379;28;20050;-74
2022/12/23 07:03:12;;;;;;;549.55;32.85;;;7.30;99.90;;;;;;4929661;28;20077;-74
2022/12/23 07:05:58;;;;;;;638.33;36.72;;;7.30;99.90;;;;;;4952768;28;20102;-73
2022/12/23 07:08:44;;;;;;;618.90;36.90;;;7.30;99.90;;;;;;4948705;28;20054;-73
2022/12/23 07:11:30;;;;;;;627.38;37.75;;;7.30;99.90;;;;;;4970896;28;20043;-73
2022/12/23 07:14:16;;;;;;;575.28;37.00;;;7.30;99.90;;;;;;4949912;28;20043;-73
2022/12/23 07:17:02;;;;;;;574.85;36.45;;;7.30;99.90;;;;;;4948587;28;20053;-73
2022/12/23 07:19:48;;;;;;;641.13;36.83;;;7.30;99.90;;;;;;4957639;28;20532;-73
2022/12/23 07:22:34;;;;;;;681.65;37.67;;;7.20;99.90;;;;;;4955167;28;20053;-73
2022/12/23 07:25:20;;;;;;;543.65;34.40;;;7.30;99.90;;;;;;4951361;28;20050;-74
2022/12/23 07:28:06;;;;;;;205.52;28.45;;;7.30;99.90;;;;;;4951474;28;20046;-74
2022/12/23 07:30:52;;;;;;;277.55;30.27;;;7.30;99.90;;;;;;4952863;28;20081;-73
2022/12/23 07:33:38;;;;;;;294.45;29.40;;;7.30;99.90;;;;;;4952979;28;20046;-74
2022/12/23 07:36:24;;;;;;;385.30;33.17;;;7.30;99.90;;;;;;4952779;28;20089;-74
2022/12/23 07:39:10;;;;;;;332.67;32.03;;;7.30;99.90;;;;;;4968605;28;20417;-74
2022/12/23 07:41:55;;;;;;;438.77;33.58;;;7.30;99.90;;;;;;4952590;28;20532;-74
2022/12/23 07:44:41;;;;;;;464.30;34.72;;;7.20;99.90;;;;;;4951043;28;20046;-74
2022/12/23 07:47:27;;;;;;;525.72;35.10;;;7.30;99.90;;;;;;4954114;28;20103;-73
2022/12/23 07:50:13;;;;;;;351.02;32.25;;;7.20;99.90;;;;;;4966158;28;20058;-73
2022/12/23 07:52:59;;;;;;;221.70;30.02;;;7.20;99.90;;;;;;4952791;28;20097;-73
2022/12/23 07:55:45;;;;;;;594.47;37.20;;;7.20;99.90;;;;;;4952871;28;20519;-74
2022/12/23 07:58:31;;;;;;;103.95;25.92;;;7.20;99.90;;;;;;4955183;28;20117;-74
2022/12/23 08:01:18;;;;;;;109.47;25.33;;;7.20;99.90;;;;;;4952257;28;20118;-74
2022/12/23 08:04:04;;;;;;;440.10;29.15;;;7.20;99.90;;;;;;4953923;28;20067;-74
2022/12/23 08:06:50;;;;;;;195.55;25.70;;;7.20;99.90;;;;;;4951154;28;20058;-74
2022/12/23 08:09:35;;;;;;;437.80;30.15;;;7.20;99.90;;;;;;4957345;28;20046;-74
2022/12/23 08:12:21;;;;;;;465.50;31.77;;;7.20;99.90;;;;;;4951955;28;20054;-74
2022/12/23 08:15:08;;;;;;;487.55;30.52;;;7.20;99.90;;;;;;4951997;28;20053;-74
2022/12/23 08:17:55;;;;;;;152.95;24.85;;;7.20;99.90;;;;;;4953898;28;20050;-73
2022/12/23 08:20:41;;;;;;;76.50;23.05;;;7.20;99.90;;;;;;4969720;28;20046;-74
2022/12/23 08:23:28;;;;;;;423.08;31.30;;;7.20;99.90;;;;;;4953134;28;20047;-74
2022/12/23 08:26:20;;;;;;;205.32;27.23;;;7.20;99.90;;;;;;4950845;28;20058;-74
2022/12/23 08:29:06;;;;;;;355.02;30.48;;;7.20;99.90;;;;;;4950788;28;20101;-74
2022/12/23 08:31:52;;;;;;;479.52;32.78;;;7.20;99.90;;;;;;4949311;28;20054;-74
2022/12/23 08:34:39;;;;;;;406.85;31.02;;;7.20;99.90;;;;;;4954837;28;20042;-73
2022/12/23 08:37:25;;;;;;;360.98;29.58;;;7.30;99.90;;;;;;4952567;28;20042;-73
2022/12/23 08:40:11;;;;;;;297.65;31.02;;;7.30;99.90;;;;;;4956202;28;20409;-74
2022/12/23 08:42:57;;;;;;;108.68;25.80;;;7.30;99.90;;;;;;4951263;28;20050;-73
2022/12/23 08:45:43;;;;;;;167.55;28.00;;;7.30;99.90;;;;;;4953488;28;20047;-73
2022/12/23 08:48:30;;;;;;;163.90;28.67;;;7.40;99.90;;;;;;4949957;28;20401;-74
2022/12/23 08:51:17;;;;;;;76.88;23.95;;;7.30;99.90;;;;;;4967659;28;20050;-74
2022/12/23 08:54:04;;;;;;;121.88;24.35;;;7.40;99.90;;;;;;4949612;28;20086;-74
2022/12/23 08:56:50;;;;;;;94.47;25.45;;;7.40;99.90;;;;;;4938690;28;20094;-74
2022/12/23 08:59:36;;;;;;;166.23;25.15;;;7.40;99.90;;;;;;4965700;28;20047;-75
2022/12/23 09:02:21;;;;;;;238.93;27.55;;;7.50;99.90;;;;;;4950452;28;20480;-75
2022/12/23 09:05:07;;;;;;;109.97;23.90;;;7.50;99.90;;;;;;4952899;28;20043;-74
2022/12/23 09:07:53;;;;;;;228.30;27.25;;;7.50;99.90;;;;;;4939397;28;20050;-74
2022/12/23 09:10:41;;;;;;;292.63;29.50;;;7.50;99.90;;;;;;4973932;28;20049;-74
2022/12/23 09:13:27;;;;;;;79.60;22.88;;;7.50;99.90;;;;;;4952996;28;20150;-74
2022/12/23 09:16:14;;;;;;;265.85;27.73;;;7.50;99.90;;;;;;4947532;28;20505;-73
2022/12/23 09:19:00;;;;;;;65.45;20.70;;;7.50;99.90;;;;;;4950881;28;20043;-74
2022/12/23 09:21:46;;;;;;;66.78;21.23;;;7.50;99.90;;;;;;4952910;28;20409;-74
2022/12/23 09:24:32;;;;;;;92.90;21.55;;;7.50;99.90;;;;;;4949586;28;20043;-74
2022/12/23 09:27:18;;;;;;;67.32;21.10;;;7.60;99.90;;;;;;4957302;28;20413;-74
2022/12/23 09:30:04;;;;;;;58.78;19.15;;;7.60;99.90;;;;;;4952957;28;20065;-75
2022/12/23 09:32:50;;;;;;;75.78;20.73;;;7.60;99.90;;;;;;4952057;28;20050;-74
2022/12/23 09:35:36;;;;;;;51.15;18.30;;;7.60;99.90;;;;;;4953557;28;20047;-75
2022/12/23 09:38:22;;;;;;;68.00;18.65;;;7.60;99.90;;;;;;4961606;28;20085;-75
2022/12/23 09:41:45;;;;;;;74.65;20.58;;;7.60;99.90;;;;;;4955376;28;20058;-74
2022/12/23 09:45:12;;;;;;;62.75;20.60;;;7.60;99.90;;;;;;4951617;28;20141;-74
2022/12/23 09:47:59;;;;;;;64.03;20.83;;;7.60;99.90;;;;;;4957224;28;20125;-75
2022/12/23 09:50:46;;;;;;;61.92;19.98;;;7.80;99.90;;;;;;4957484;28;20129;-74
2022/12/23 09:53:59;;;;;;;53.40;17.42;;;7.70;99.90;;;;;;4954859;28;20059;-75
2022/12/23 09:57:10;;;;;;;62.30;19.40;;;7.70;99.90;;;;;;4951492;28;20454;-74
2022/12/23 10:00:09;;;;;;;66.38;18.75;;;7.80;99.90;;;;;;4954518;28;20404;-75
2022/12/23 10:03:20;;;;;;;63.97;19.85;;;7.80;99.90;;;;;;4955357;28;20507;-74
2022/12/23 10:06:14;;;;;;;56.30;19.50;;;7.80;99.90;;;;;;4955394;28;20043;-75
2022/12/23 10:09:03;;;;;;;72.13;21.02;;;7.80;99.90;;;;;;4956173;28;20095;-75
2022/12/23 10:11:50;;;;;;;84.47;21.35;;;7.80;99.90;;;;;;4959692;28;20054;-75
2022/12/23 10:14:36;;;;;;;78.40;21.73;;;7.80;99.90;;;;;;4957350;28;20093;-75
2022/12/23 10:17:42;;;;;;;85.25;21.38;;;7.80;99.90;;;;;;4941550;28;20053;-75
2022/12/23 10:20:41;;;;;;;81.70;21.48;;;7.80;99.90;;;;;;4955610;28;20449;-75
2022/12/23 10:23:36;;;;;;;79.72;20.70;;;7.80;99.90;;;;;;4940945;28;20054;-74
2022/12/23 10:26:32;;;;;;;56.42;20.17;;;7.80;99.90;;;;;;4952627;28;20147;-75
2022/12/23 10:29:25;;;;;;;53.67;18.10;;;7.80;99.90;;;;;;4954699;28;20101;-75
2022/12/23 10:32:13;;;;;;;49.22;18.15;;;7.80;99.90;;;;;;4955205;28;20464;-75
2022/12/23 10:35:20;;;;;;;47.28;18.38;;;7.90;99.90;;;;;;4961110;28;20038;-76
2022/12/23 10:38:31;;;;;;;47.55;17.30;;;7.90;99.90;;;;;;4957352;28;20046;-75
2022/12/23 10:41:37;;;;;;;52.53;18.27;;;7.90;99.90;;;;;;4948191;28;20053;-74
2022/12/23 10:45:00;;;;;;;49.92;19.15;;;7.90;99.90;;;;;;4950338;28;20042;-75
2022/12/23 10:47:46;;;;;;;50.17;18.48;;;8.00;99.90;;;;;;4955490;28;20050;-74
2022/12/23 10:50:51;;;;;;;62.25;20.23;;;8.00;99.90;;;;;;4948937;28;20056;-75
2022/12/23 10:53:55;;;;;;;53.45;19.67;;;8.00;99.90;;;;;;4938398;28;20050;-73
2022/12/23 10:56:41;;;;;;;65.32;20.20;;;8.00;99.90;;;;;;4957551;28;20043;-74
2022/12/23 10:59:30;;;;;;;61.95;19.80;;;8.00;99.90;;;;;;4966771;28;20054;-74
2022/12/23 11:02:39;;;;;;;56.83;19.83;;;8.00;99.90;;;;;;4958819;28;20457;-75
2022/12/23 11:05:28;;;;;;;66.65;20.85;;;8.00;99.90;;;;;;4950490;28;20053;-75
2022/12/23 11:08:14;;;;;;;52.10;20.90;;;8.00;99.90;;;;;;4946377;28;20378;-75
2022/12/23 11:11:00;;;;;;;63.28;20.70;;;8.00;99.90;;;;;;4954386;28;20409;-74
2022/12/23 11:13:46;;;;;;;60.75;20.48;;;8.00;99.90;;;;;;4953340;28;20047;-74
2022/12/23 11:16:32;;;;;;;57.80;19.33;;;8.00;99.90;;;;;;4949919;28;20130;-75
2022/12/23 11:19:18;;;;;;;48.53;17.92;;;8.00;99.90;;;;;;4948549;28;20050;-74
2022/12/23 11:22:04;;;;;;;45.58;17.90;;;8.10;99.90;;;;;;4955022;28;20050;-75
2022/12/23 11:24:51;;;;;;;51.13;17.75;;;8.10;99.90;;;;;;4947095;28;20070;-75
2022/12/23 11:27:37;;;;;;;52.08;18.40;;;8.10;99.90;;;;;;4958316;28;20559;-74
2022/12/23 11:30:23;;;;;;;52.22;17.52;;;8.10;99.90;;;;;;4952244;28;20050;-75
2022/12/23 11:33:21;;;;;;;50.83;17.50;;;8.10;99.90;;;;;;4954357;28;20054;-75
2022/12/23 11:36:22;;;;;;;50.25;18.40;;;8.10;99.90;;;;;;4939854;28;20054;-76
2022/12/23 11:39:11;;;;;;;56.42;18.55;;;8.00;99.90;;;;;;4950898;28;20098;-75
2022/12/23 11:42:14;;;;;;;43.60;16.85;;;8.00;99.90;;;;;;4955418;28;20039;-75
2022/12/23 11:45:05;;;;;;;56.45;18.30;;;8.10;99.90;;;;;;4954675;28;20460;-75
2022/12/23 11:47:51;;;;;;;59.60;18.48;;;8.00;99.90;;;;;;4956664;28;20155;-76
2022/12/23 11:50:39;;;;;;;53.63;17.92;;;8.10;99.90;;;;;;4955379;28;20066;-75
2022/12/23 11:53:26;;;;;;;53.10;18.20;;;8.10;99.90;;;;;;4963470;28;20132;-75
2022/12/23 11:56:14;;;;;;;53.42;17.75;;;8.10;99.90;;;;;;4951771;28;20046;-76
2022/12/23 11:59:07;;;;;;;47.70;17.20;;;8.10;99.90;;;;;;4952502;28;20113;-75
2022/12/23 12:01:57;;;;;;;48.90;17.70;;;8.10;99.90;;;;;;4951786;28;20510;-75
2022/12/23 12:04:54;;;;;;;46.58;17.20;;;8.10;99.90;;;;;;4953995;28;20049;-75
2022/12/23 12:07:42;;;;;;;67.35;19.00;;;8.10;99.90;;;;;;4962876;28;20057;-75
2022/12/23 12:10:31;;;;;;;46.75;18.20;;;8.10;99.90;;;;;;4952946;28;20042;-76
2022/12/23 12:13:31;;;;;;;48.58;18.27;;;8.10;99.90;;;;;;4936666;28;20050;-75
2022/12/23 12:16:32;;;;;;;59.53;20.52;;;8.20;99.90;;;;;;4941692;28;20050;-75
2022/12/23 12:19:47;;;;;;;87.03;22.60;;;8.10;99.90;;;;;;4953022;28;20057;-75
2022/12/23 12:22:37;;;;;;;50.92;19.25;;;8.10;99.90;;;;;;4930267;28;20166;-73
2022/12/23 12:25:40;;;;;;;49.95;18.52;;;8.10;99.90;;;;;;4954238;28;20053;-73
2022/12/23 12:28:37;;;;;;;48.53;19.00;;;8.10;99.90;;;;;;4954392;28;20046;-73
2022/12/23 12:31:36;;;;;;;52.95;18.85;;;8.20;99.90;;;;;;4952966;28;20597;-73
2022/12/23 12:34:28;;;;;;;53.72;19.02;;;8.20;99.90;;;;;;4967503;28;20047;-73
2022/12/23 12:37:37;;;;;;;50.75;18.75;;;8.20;99.90;;;;;;4944951;28;20078;-74
2022/12/23 12:40:39;;;;;;;54.40;18.90;;;8.20;99.90;;;;;;4955008;28;20049;-72
2022/12/23 12:43:32;;;;;;;50.25;18.25;;;8.20;99.90;;;;;;4960155;28;20058;-74
2022/12/23 12:46:33;;;;;;;48.45;18.17;;;8.20;99.90;;;;;;4951723;28;20050;-73
2022/12/23 12:49:28;;;;;;;59.08;18.58;;;8.10;99.90;;;;;;4952039;28;20141;-75
2022/12/23 12:52:23;;;;;;;50.75;18.50;;;8.20;99.90;;;;;;4951982;28;20055;-75
2022/12/23 12:55:32;;;;;;;45.83;18.98;;;8.20;99.90;;;;;;4951209;28;20085;-74
2022/12/23 12:58:20;;;;;;;46.25;18.17;;;8.20;99.90;;;;;;4951710;28;20047;-75
2022/12/23 13:01:27;;;;;;;59.25;18.73;;;8.10;99.90;;;;;;4951983;28;20109;-76
2022/12/23 13:04:44;;;;;;;53.55;19.13;;;8.20;99.90;;;;;;4970943;28;20401;-74
2022/12/23 13:07:45;;;;;;;55.17;18.98;;;8.10;99.90;;;;;;4956196;28;20118;-73
2022/12/23 13:10:40;;;;;;;58.50;18.83;;;8.10;99.90;;;;;;4955175;28;20047;-73
2022/12/23 13:13:56;;;;;;;44.78;18.13;;;8.20;99.90;;;;;;4951932;28;20084;-74
2022/12/23 13:17:10;;;;;;;60.95;19.98;;;8.10;99.90;;;;;;4953030;28;20054;-73
2022/12/23 13:20:16;;;;;;;45.42;18.20;;;8.20;99.90;;;;;;4951854;28;20057;-73
2022/12/23 13:23:12;;;;;;;52.85;18.67;;;8.10;99.90;;;;;;4942792;28;20454;-73
2022/12/23 13:26:14;;;;;;;45.65;17.98;;;8.20;99.90;;;;;;4955269;28;20190;-72
2022/12/23 13:29:17;;;;;;;70.32;18.58;;;8.20;99.90;;;;;;4954962;28;20137;-74
2022/12/23 13:32:20;;;;;;;;;;;8.20;99.90;;;;;;4950501;28;20412;-72
2022/12/23 13:35:32;;;;;;;46.90;16.63;;;8.10;99.90;;;;;;4957920;28;20303;-72
2022/12/23 13:38:24;;;;;;;44.90;15.82;;;8.20;99.90;;;;;;4951444;28;20066;-72
2022/12/23 13:41:27;;;;;;;50.90;16.13;;;8.10;99.90;;;;;;4957505;28;20123;-72
2022/12/23 13:44:14;;;;;;;49.53;16.45;;;8.20;99.90;;;;;;4956459;28;20454;-72
2022/12/23 13:47:14;;;;;;;45.10;16.23;;;8.10;99.90;;;;;;4944697;28;20043;-73
2022/12/23 13:50:06;;;;;;;43.80;15.48;;;8.20;99.90;;;;;;4966089;28;20535;-73
2022/12/23 13:53:29;;;;;;;40.65;15.25;;;8.20;99.90;;;;;;4958640;28;20604;-72
2022/12/23 13:56:40;;;;;;;45.95;16.05;;;8.10;99.90;;;;;;4954083;28;20061;-73
2022/12/23 13:59:42;;;;;;;40.30;15.50;;;8.10;99.90;;;;;;4949571;28;20059;-74
2022/12/23 14:02:34;;;;;;;42.42;14.65;;;8.10;99.90;;;;;;4953917;28;20813;-73
2022/12/23 14:05:46;;;;;;;39.28;15.20;;;8.10;99.90;;;;;;4938153;28;20493;-72
2022/12/23 14:08:41;;;;;;;37.25;14.07;;;8.10;99.90;;;;;;4949936;28;20043;-74
2022/12/23 14:11:29;;;;;;;41.15;16.00;;;8.10;99.90;;;;;;4951162;28;20055;-72
2022/12/23 14:14:21;;;;;;;38.25;15.55;;;8.10;99.90;;;;;;4953719;28;20079;-72
2022/12/23 14:17:24;;;;;;;38.73;16.47;;;8.10;99.90;;;;;;4953625;28;20058;-71
2022/12/23 14:20:31;;;;;;;41.55;16.35;;;8.10;99.90;;;;;;4952748;28;20399;-72
2022/12/23 14:23:35;;;;;;;45.45;18.15;;;8.10;99.90;;;;;;4952287;28;20078;-72
2022/12/23 14:26:42;;;;;;;54.25;18.58;;;8.10;99.90;;;;;;4951535;28;20046;-72
2022/12/23 14:29:52;;;;;;;55.72;18.88;;;8.10;99.90;;;;;;4959294;28;20442;-72
2022/12/23 14:32:56;;;;;;;43.75;17.30;;;8.10;99.90;;;;;;4956579;28;20049;-74
2022/12/23 14:35:41;;;;;;;48.00;18.23;;;8.10;99.90;;;;;;4953861;28;20390;-76
2022/12/23 14:38:33;;;;;;;49.40;19.13;;;8.10;99.90;;;;;;4965197;28;20051;-75
2022/12/23 14:41:36;;;;;;;47.35;18.70;;;8.10;99.90;;;;;;4955140;28;20133;-75
2022/12/23 14:44:34;;;;;;;53.70;20.50;;;8.10;99.90;;;;;;4963369;28;20054;-73
2022/12/23 14:47:31;;;;;;;51.42;20.33;;;8.20;99.90;;;;;;4958059;28;20509;-72
2022/12/23 14:50:33;;;;;;;59.13;21.58;;;8.10;99.90;;;;;;4953010;28;20049;-74
2022/12/23 14:53:23;;;;;;;51.40;20.23;;;8.10;99.90;;;;;;4955165;28;20549;-72
2022/12/23 14:56:11;;;;;;;50.28;19.80;;;8.10;99.90;;;;;;4957339;28;20103;-71
2022/12/23 14:59:36;;;;;;;58.08;20.23;;;8.10;99.90;;;;;;4956215;28;20057;-72
2022/12/23 15:02:35;;;;;;;55.58;20.05;;;8.10;99.90;;;;;;4934745;28;20164;-73
2022/12/23 15:05:22;;;;;;;45.85;17.83;;;8.10;99.90;;;;;;4959502;28;20540;-74